Ana Sayfa
METAR-TAF:

METAR-TAF

Havaalanları :

Grafton, Avustralya

Enlem: 29-45-36S, Boylam: 153-01-48E, yükseklik: 34 m

Güncel hava durumu gözlemi

Rapor saat 18:00 UTC de 27 dakika önce yapıldı.
Rüzgar kuzeydan 1 kt
Sıcaklık 22°C
Nem 69%
Basınç 1011 hPa
Görüş mesafesi 10 km veya daha fazla

METAR: YGFN 101800Z AUTO 01001KT 9999 // NCD 22/16 Q1011

Saat: 05:27 (18:27 UTC)


TAF: eksik

4.000'den fazla havaalanı için hava durumu gözlemleri ve tahminleri (METAR ve TAF raporları).

Kullanılabilir istasyonlar harita üzerinde sarı ve kırmızı noktalarla gösterilir.

İstasyonun adını görmek için fareyi noktanın üzerinde gezdirin.

Sonrasında hava gözlem ve tahminlerini görmek için tıklayın.

Haritayı değiştirmek için: yaklaştırmak için siyah artı işaretli yeşil düğmeye ve uzaklaştırmak için de eksi işaretli düğmeye hızla tıklayın; bitişik haritalar için yeşil okları kullanın.


METAR-TAF: